createdAt,value
2023-05-05T00:02:09.364Z,101518.72
2023-05-05T00:04:36.134Z,101517.88
2023-05-05T00:07:02.539Z,101505.88
2023-05-05T00:09:29.657Z,101525.72
2023-05-05T00:11:56.047Z,101532.22
2023-05-05T00:14:22.502Z,101529.50
2023-05-05T00:16:48.944Z,101513.25
2023-05-05T00:19:15.400Z,101512.84
2023-05-05T00:21:41.823Z,101514.97
2023-05-05T00:24:10.127Z,101513.91
2023-05-05T00:26:36.548Z,101506.75
2023-05-05T00:29:02.969Z,101515.75
2023-05-05T00:31:29.440Z,101516.31
2023-05-05T00:33:56.357Z,101515.19
2023-05-05T00:36:23.002Z,101511.34
2023-05-05T00:38:49.472Z,101518.63
2023-05-05T00:41:15.984Z,101501.31
2023-05-05T00:43:42.421Z,101510.19
2023-05-05T00:46:26.068Z,101501.00
2023-05-05T00:48:53.769Z,101494.09
2023-05-05T00:51:20.991Z,101495.63
2023-05-05T00:53:48.193Z,101496.03
2023-05-05T00:56:16.839Z,101502.38
2023-05-05T00:58:43.987Z,101491.78
2023-05-05T01:01:11.609Z,101492.56
2023-05-05T01:03:39.510Z,101494.28
2023-05-05T01:06:20.978Z,101497.72
2023-05-05T01:09:19.470Z,101496.19
2023-05-05T01:11:48.782Z,101507.09
2023-05-05T01:14:44.196Z,101501.41
2023-05-05T01:17:18.767Z,101487.06
2023-05-05T01:20:03.036Z,101496.44
2023-05-05T01:22:39.486Z,101485.00
2023-05-05T01:25:12.238Z,101502.06
2023-05-05T01:27:55.604Z,101503.06
2023-05-05T01:30:43.837Z,101488.84
2023-05-05T01:33:15.455Z,101493.91
2023-05-05T01:51:36.548Z,101506.91
2023-05-05T01:54:05.970Z,101495.28
2023-05-05T01:56:34.545Z,101484.66
2023-05-05T01:59:02.376Z,101494.03
2023-05-05T02:01:30.385Z,101479.53
2023-05-05T02:03:59.009Z,101478.44
2023-05-05T02:06:29.787Z,101481.97
2023-05-05T02:08:58.490Z,101453.47
2023-05-05T02:11:26.889Z,101465.91
2023-05-05T02:13:54.657Z,101469.00
2023-05-05T02:16:22.708Z,101471.56
2023-05-05T02:18:49.805Z,101471.25
2023-05-05T02:21:18.166Z,101468.13
2023-05-05T02:23:48.187Z,101488.75
2023-05-05T02:26:16.987Z,101475.38
2023-05-05T02:29:05.614Z,101468.78
2023-05-05T02:31:37.445Z,101470.59
2023-05-05T02:34:05.802Z,101468.41
2023-05-05T02:36:37.229Z,101461.34
2023-05-05T02:39:22.515Z,101470.06
2023-05-05T02:41:51.291Z,101469.47
2023-05-05T02:44:19.953Z,101475.06
2023-05-05T02:46:47.226Z,101474.72
2023-05-05T02:49:15.475Z,101473.53
2023-05-05T02:51:41.900Z,101464.91
2023-05-05T02:54:08.588Z,101472.63
2023-05-05T02:56:38.069Z,101474.38
2023-05-05T02:59:16.463Z,101474.41
2023-05-05T03:01:57.312Z,101486.13
2023-05-05T03:04:31.952Z,101459.19
2023-05-05T03:07:14.435Z,101472.56
2023-05-05T03:09:46.037Z,101485.28
2023-05-05T03:12:18.285Z,101472.94
2023-05-05T03:14:46.053Z,101479.94
2023-05-05T03:17:13.539Z,101483.97
2023-05-05T03:19:44.559Z,101470.09
2023-05-05T03:22:11.472Z,101466.72
2023-05-05T03:24:37.891Z,101485.28
2023-05-05T03:27:04.403Z,101476.47
2023-05-05T03:29:31.047Z,101467.41
2023-05-05T03:31:58.509Z,101460.22
2023-05-05T03:34:24.944Z,101481.38
2023-05-05T03:36:51.359Z,101473.69
2023-05-05T03:39:18.849Z,101470.41
2023-05-05T03:41:45.460Z,101467.06
2023-05-05T03:44:11.958Z,101479.56
2023-05-05T03:46:39.088Z,101489.00
2023-05-05T03:49:05.607Z,101466.97
2023-05-05T03:51:32.235Z,101471.63
2023-05-05T03:53:58.744Z,101468.53
2023-05-05T03:56:25.196Z,101477.31
2023-05-05T03:58:51.751Z,101476.97
2023-05-05T04:01:18.194Z,101454.28
2023-05-05T04:03:44.770Z,101464.72
2023-05-05T04:06:11.550Z,101470.31
2023-05-05T04:08:38.002Z,101460.13
2023-05-05T04:11:04.528Z,101481.53
2023-05-05T04:13:31.215Z,101456.94
2023-05-05T04:15:59.063Z,101464.53
2023-05-05T04:18:26.310Z,101445.06
2023-05-05T04:20:52.762Z,101462.47
2023-05-05T04:23:19.179Z,101465.44
2023-05-05T04:25:47.356Z,101466.56
2023-05-05T04:28:13.824Z,101469.13
2023-05-05T04:30:40.999Z,101474.63
2023-05-05T04:33:07.749Z,101466.47
2023-05-05T04:35:34.784Z,101488.91
2023-05-05T04:38:01.215Z,101481.13
2023-05-05T04:40:27.783Z,101491.66
2023-05-05T04:43:18.720Z,101464.31
2023-05-05T04:45:55.436Z,101499.41
2023-05-05T04:48:22.023Z,101474.19
2023-05-05T04:50:48.710Z,101470.50
2023-05-05T04:53:15.160Z,101498.91
2023-05-05T04:55:41.723Z,101491.66
2023-05-05T04:58:08.136Z,101510.53
2023-05-05T05:00:36.847Z,101514.72
2023-05-05T05:03:04.065Z,101516.59
2023-05-05T05:05:30.666Z,101515.97
2023-05-05T05:07:57.123Z,101514.72
2023-05-05T05:10:23.637Z,101512.53
2023-05-05T05:12:50.125Z,101507.53
2023-05-05T05:15:16.592Z,101514.09
2023-05-05T05:17:43.092Z,101512.53
2023-05-05T05:20:13.061Z,101515.31
2023-05-05T05:22:39.565Z,101509.34
2023-05-05T05:25:06.519Z,101499.59
2023-05-05T05:27:33.042Z,101507.28
2023-05-05T05:29:59.672Z,101504.44
2023-05-05T05:32:26.451Z,101512.25
2023-05-05T05:34:52.842Z,101522.53
2023-05-05T05:37:19.339Z,101498.72
2023-05-05T05:39:51.602Z,101511.91
2023-05-05T05:42:18.023Z,101524.88
2023-05-05T05:44:44.512Z,101506.50
2023-05-05T05:47:11.148Z,101511.09
2023-05-05T05:49:37.778Z,101507.34
2023-05-05T05:52:04.600Z,101517.25
2023-05-05T05:54:32.696Z,101523.41
2023-05-05T05:56:59.144Z,101518.25
2023-05-05T05:59:25.687Z,101512.41
2023-05-05T06:01:52.289Z,101511.78
2023-05-05T06:04:18.860Z,101500.25
2023-05-05T06:06:45.592Z,101501.94
2023-05-05T06:09:12.088Z,101529.72
2023-05-05T06:11:38.649Z,101526.84
2023-05-05T06:14:05.111Z,101520.72
2023-05-05T06:16:31.680Z,101505.13
2023-05-05T06:18:58.192Z,101504.94
2023-05-05T06:21:24.709Z,101506.25
2023-05-05T06:23:51.194Z,101503.97
2023-05-05T06:26:17.671Z,101516.03
2023-05-05T06:28:44.689Z,101515.81
2023-05-05T06:31:12.967Z,101501.47
2023-05-05T06:33:39.555Z,101503.31
2023-05-05T06:36:06.377Z,101514.19
2023-05-05T06:38:32.807Z,101522.69
2023-05-05T06:40:59.321Z,101479.16
2023-05-05T06:43:25.858Z,101532.38
2023-05-05T06:45:52.337Z,101514.34
2023-05-05T06:48:18.872Z,101503.66
2023-05-05T06:50:45.390Z,101509.22
2023-05-05T06:53:11.906Z,101514.06
2023-05-05T06:55:38.401Z,101526.56
2023-05-05T06:58:04.841Z,101512.72
2023-05-05T07:00:31.314Z,101530.13
2023-05-05T07:02:58.626Z,101532.81
2023-05-05T07:05:25.134Z,101539.50
2023-05-05T07:07:56.753Z,101538.44
2023-05-05T07:10:24.603Z,101498.38
2023-05-05T07:12:52.103Z,101528.69
2023-05-05T07:15:57.367Z,101528.09
2023-05-05T07:18:55.622Z,101503.56
2023-05-05T07:21:34.541Z,101531.94
2023-05-05T07:24:03.432Z,101507.94
2023-05-05T07:26:32.697Z,101506.09
2023-05-05T07:28:59.578Z,101509.88
2023-05-05T07:31:26.787Z,101530.78
2023-05-05T07:33:53.466Z,101537.69
2023-05-05T07:36:20.519Z,101534.53
2023-05-05T07:38:47.014Z,101531.41
2023-05-05T07:41:13.609Z,101537.19
2023-05-05T07:43:44.655Z,101541.06
2023-05-05T07:46:12.894Z,101523.25
2023-05-05T07:48:41.559Z,101533.34
2023-05-05T07:51:11.917Z,101535.97
2023-05-05T07:53:38.388Z,101522.59
2023-05-05T07:56:09.979Z,101531.44
2023-05-05T07:58:36.604Z,101541.06
2023-05-05T08:01:03.234Z,101556.41
2023-05-05T08:03:29.940Z,101538.16
2023-05-05T08:05:56.565Z,101542.25
2023-05-05T08:08:25.064Z,101537.34
2023-05-05T08:10:55.126Z,101504.81
2023-05-05T08:13:21.807Z,101506.38
2023-05-05T08:15:48.326Z,101519.19
2023-05-05T08:18:14.931Z,101525.94
2023-05-05T08:20:41.670Z,101511.44
2023-05-05T08:23:08.057Z,101519.19
2023-05-05T08:25:34.650Z,101500.38
2023-05-05T08:28:02.369Z,101498.69
2023-05-05T08:31:02.522Z,101517.44
2023-05-05T08:33:31.614Z,101496.25
2023-05-05T08:35:58.315Z,101507.41
2023-05-05T08:38:24.795Z,101489.38
2023-05-05T08:40:52.124Z,101503.25
2023-05-05T08:43:23.947Z,101516.25
2023-05-05T08:45:51.721Z,101525.84
2023-05-05T08:48:23.183Z,101520.81
2023-05-05T08:50:59.832Z,101514.81
2023-05-05T08:53:46.719Z,101528.78
2023-05-05T08:56:13.671Z,101509.84
2023-05-05T08:58:41.915Z,101512.53
2023-05-05T09:01:09.940Z,101529.66
2023-05-05T09:03:39.234Z,101523.44
2023-05-05T09:06:06.943Z,101505.22
2023-05-05T09:09:35.897Z,101476.16
2023-05-05T09:12:03.058Z,101511.00
2023-05-05T09:14:29.553Z,101518.16
2023-05-05T09:16:56.261Z,101499.41
2023-05-05T09:19:22.731Z,101524.03
2023-05-05T09:21:52.010Z,101505.09
2023-05-05T09:24:18.829Z,101522.38
2023-05-05T09:26:46.269Z,101518.16
2023-05-05T09:29:22.871Z,101523.34
2023-05-05T09:32:08.976Z,101497.00
2023-05-05T09:34:36.320Z,101486.38
2023-05-05T09:37:06.304Z,101476.28
2023-05-05T09:39:33.088Z,101477.56
2023-05-05T09:41:59.632Z,101479.00
2023-05-05T09:44:37.167Z,101509.75
2023-05-05T09:47:18.146Z,101510.50
2023-05-05T09:49:59.231Z,101496.06
2023-05-05T09:52:26.016Z,101510.50
2023-05-05T09:54:58.397Z,101507.16
2023-05-05T09:57:33.091Z,101493.00
2023-05-05T10:00:01.500Z,101473.22
2023-05-05T10:02:33.481Z,101507.34
2023-05-05T10:05:11.182Z,101500.16
2023-05-05T10:07:39.088Z,101513.75
2023-05-05T10:10:08.657Z,101507.44
2023-05-05T10:12:37.133Z,101510.59
2023-05-05T10:15:10.129Z,101492.03
2023-05-05T10:18:05.381Z,101517.47
2023-05-05T10:20:37.688Z,101491.63
2023-05-05T10:23:08.266Z,101480.75
2023-05-05T10:25:42.194Z,101475.38
2023-05-05T10:28:14.725Z,101475.38
2023-05-05T10:30:44.226Z,101493.34
2023-05-05T10:35:53.781Z,101488.66
2023-05-05T10:38:20.880Z,101506.19
2023-05-05T10:40:48.815Z,101497.94
2023-05-05T10:43:15.537Z,101489.03
2023-05-05T10:45:43.143Z,101489.94
2023-05-05T10:48:18.708Z,101493.91
2023-05-05T10:50:51.233Z,101482.63
2023-05-05T10:53:28.848Z,101482.53
2023-05-05T10:56:18.136Z,101495.94
2023-05-05T10:58:58.881Z,101476.53
2023-05-05T11:01:34.964Z,101491.38
2023-05-05T11:04:21.914Z,101483.22
2023-05-05T11:07:14.321Z,101475.81
2023-05-05T11:09:58.619Z,101467.69
2023-05-05T11:12:25.176Z,101445.25
2023-05-05T11:15:36.346Z,101466.28
2023-05-05T11:18:07.825Z,101454.59
2023-05-05T11:20:39.777Z,101463.19
2023-05-05T11:23:06.411Z,101459.91
2023-05-05T11:25:36.593Z,101459.38
2023-05-05T11:28:11.599Z,101457.66
2023-05-05T11:30:56.898Z,101452.19
2023-05-05T11:33:38.439Z,101452.50
2023-05-05T11:36:07.138Z,101434.28
2023-05-05T11:39:05.449Z,101437.66
2023-05-05T11:41:51.603Z,101424.69
2023-05-05T11:44:20.201Z,101444.78
2023-05-05T11:46:52.828Z,101434.66
2023-05-05T11:49:39.402Z,101431.94
2023-05-05T11:52:07.957Z,101406.31
2023-05-05T11:54:41.512Z,101395.00
2023-05-05T11:57:09.508Z,101391.72
2023-05-05T11:59:56.080Z,101404.00
2023-05-05T12:02:23.274Z,101422.81
2023-05-05T12:04:51.323Z,101418.97
2023-05-05T12:07:19.224Z,101408.88
2023-05-05T12:09:47.312Z,101404.91
2023-05-05T12:12:14.888Z,101416.81
2023-05-05T12:14:46.938Z,101411.97
2023-05-05T12:17:13.439Z,101400.72
2023-05-05T12:19:46.300Z,101389.34
2023-05-05T12:22:19.588Z,101394.88
2023-05-05T12:24:55.017Z,101398.81
2023-05-05T12:27:22.333Z,101392.94
2023-05-05T12:29:49.582Z,101374.03
2023-05-05T12:32:28.108Z,101409.59
2023-05-05T12:34:57.605Z,101399.88
2023-05-05T12:37:26.245Z,101366.72
2023-05-05T12:40:01.664Z,101399.28
2023-05-05T12:42:46.447Z,101388.47
2023-05-05T12:45:17.571Z,101388.78
2023-05-05T12:47:44.897Z,101387.00
2023-05-05T12:50:11.550Z,101390.19
2023-05-05T12:52:45.496Z,101382.81
2023-05-05T12:55:12.662Z,101396.00
2023-05-05T12:57:58.484Z,101388.78
2023-05-05T13:00:25.635Z,101392.13
2023-05-05T13:02:53.145Z,101372.44
2023-05-05T13:05:33.600Z,101370.34
2023-05-05T13:11:59.605Z,101345.78
2023-05-05T13:14:45.167Z,101354.91
2023-05-05T13:17:12.319Z,101360.34
2023-05-05T13:19:47.915Z,101348.03
2023-05-05T13:22:24.284Z,101324.53
2023-05-05T13:25:14.139Z,101306.53
2023-05-05T13:27:42.319Z,101348.91
2023-05-05T13:30:09.683Z,101333.66
2023-05-05T13:32:36.898Z,101325.88
2023-05-05T13:35:16.222Z,101320.44
2023-05-05T13:37:47.741Z,101332.59
2023-05-05T13:40:21.446Z,101292.28
2023-05-05T13:47:16.488Z,101295.78
2023-05-05T13:54:13.426Z,101302.75
2023-05-05T14:00:51.387Z,101308.28
2023-05-05T14:22:42.250Z,101260.25
2023-05-05T14:25:11.944Z,101265.97
2023-05-05T14:27:45.880Z,101273.09
2023-05-05T14:30:41.509Z,101231.97
2023-05-05T14:33:18.473Z,101255.31
2023-05-05T14:35:53.612Z,101240.34
2023-05-05T14:38:33.794Z,101292.50
2023-05-05T14:41:30.790Z,101233.06
2023-05-05T14:52:29.812Z,101226.06
2023-05-05T14:54:56.448Z,101248.66
2023-05-05T14:57:23.308Z,101269.25
2023-05-05T15:07:59.901Z,101232.19
2023-05-05T15:10:39.634Z,101274.09
2023-05-05T15:13:33.587Z,101284.31
2023-05-05T15:22:01.522Z,101256.31
2023-05-05T15:24:52.907Z,101255.50
2023-05-05T15:34:34.124Z,101223.44
2023-05-05T15:37:46.314Z,101217.22
2023-05-05T15:40:58.551Z,101258.34
2023-05-05T15:47:08.604Z,101212.16
2023-05-05T15:51:04.140Z,101259.59
2023-05-05T15:57:20.691Z,101255.25
2023-05-05T16:03:58.132Z,101236.22
2023-05-05T16:07:09.924Z,101222.22
2023-05-05T16:09:39.766Z,101225.22
2023-05-05T16:14:36.640Z,101244.19
2023-05-05T16:17:03.160Z,101240.63
2023-05-05T16:19:31.039Z,101241.19
2023-05-05T16:21:57.613Z,101246.47
2023-05-05T16:24:24.113Z,101244.47
2023-05-05T16:26:51.391Z,101254.34
2023-05-05T16:29:17.818Z,101241.22
2023-05-05T16:31:44.277Z,101243.94
2023-05-05T16:34:10.993Z,101218.72
2023-05-05T16:36:37.468Z,101233.94
2023-05-05T16:39:04.041Z,101224.66
2023-05-05T16:41:30.709Z,101221.97
2023-05-05T16:43:57.066Z,101235.66
2023-05-05T16:46:23.759Z,101223.56
2023-05-05T16:48:50.688Z,101234.09
2023-05-05T16:51:17.138Z,101221.97
2023-05-05T16:53:43.683Z,101227.41
2023-05-05T16:56:13.212Z,101218.72
2023-05-05T16:58:40.538Z,101203.88
2023-05-05T17:01:07.011Z,101202.84
2023-05-05T17:03:33.445Z,101209.59
2023-05-05T17:06:00.016Z,101216.56
2023-05-05T17:08:26.570Z,101211.16
2023-05-05T17:10:53.039Z,101203.50
2023-05-05T17:13:19.692Z,101214.94
2023-05-05T17:15:50.363Z,101216.56
2023-05-05T17:18:18.504Z,101204.09
2023-05-05T17:20:45.031Z,101198.09
2023-05-05T17:23:12.668Z,101206.69
2023-05-05T17:25:39.224Z,101200.94
2023-05-05T17:28:05.743Z,101179.78
2023-05-05T17:30:32.349Z,101205.44
2023-05-05T17:32:58.888Z,101199.81
2023-05-05T17:35:28.522Z,101195.03
2023-05-05T17:37:55.273Z,101197.56
2023-05-05T17:40:22.181Z,101218.81
2023-05-05T17:42:48.679Z,101198.53
2023-05-05T17:45:15.624Z,101191.03
2023-05-05T17:47:42.497Z,101200.22
2023-05-05T17:50:11.923Z,101172.16
2023-05-05T17:52:38.579Z,101179.97
2023-05-05T17:55:11.539Z,101197.97
2023-05-05T17:57:40.905Z,101154.94
2023-05-05T18:00:09.071Z,101173.22
2023-05-05T18:02:37.220Z,101192.63
2023-05-05T18:05:04.304Z,101196.91
2023-05-05T18:07:31.794Z,101190.63
2023-05-05T18:09:58.272Z,101183.53
2023-05-05T18:12:24.829Z,101208.47
2023-05-05T18:14:52.069Z,101225.44
2023-05-05T18:17:18.842Z,101226.38
2023-05-05T18:19:47.258Z,101238.16
2023-05-05T18:22:15.826Z,101190.19
2023-05-05T18:24:42.369Z,101231.78
2023-05-05T18:27:09.129Z,101215.22
2023-05-05T18:29:39.261Z,101232.00
2023-05-05T18:32:12.185Z,101238.25
2023-05-05T18:34:38.716Z,101203.00
2023-05-05T18:37:05.315Z,101217.13
2023-05-05T18:39:31.796Z,101260.16
2023-05-05T18:42:03.627Z,101237.66
2023-05-05T18:44:30.185Z,101257.03
2023-05-05T18:46:56.980Z,101258.16
2023-05-05T18:49:24.760Z,101226.81
2023-05-05T18:51:52.174Z,101248.13
2023-05-05T18:54:18.612Z,101244.00
2023-05-05T18:56:45.137Z,101259.31
2023-05-05T18:59:11.844Z,101254.03
2023-05-05T19:01:38.564Z,101258.81
2023-05-05T19:04:08.429Z,101273.88
2023-05-05T19:06:39.942Z,101268.84
2023-05-05T19:09:06.467Z,101261.41
2023-05-05T19:11:32.930Z,101260.91
2023-05-05T19:13:59.382Z,101267.75
2023-05-05T19:16:27.076Z,101271.19
2023-05-05T19:18:58.629Z,101248.38
2023-05-05T19:21:27.594Z,101267.91
2023-05-05T19:23:54.133Z,101258.22
2023-05-05T19:26:20.550Z,101250.22
2023-05-05T19:28:47.085Z,101258.41
2023-05-05T19:31:13.522Z,101266.59
2023-05-05T19:33:44.905Z,101266.97
2023-05-05T19:36:14.787Z,101275.69
2023-05-05T19:38:44.408Z,101272.13
2023-05-05T19:41:11.808Z,101272.88
2023-05-05T19:43:38.275Z,101265.28
2023-05-05T19:46:04.898Z,101268.47
2023-05-05T19:48:31.590Z,101262.81
2023-05-05T19:50:58.070Z,101268.78
2023-05-05T19:53:25.467Z,101268.78
2023-05-05T19:55:51.979Z,101263.31
2023-05-05T19:58:18.967Z,101260.13
2023-05-05T20:00:45.417Z,101266.56
2023-05-05T20:03:48.528Z,101265.81
2023-05-05T20:06:15.110Z,101268.88
2023-05-05T20:08:41.554Z,101279.25
2023-05-05T20:11:08.019Z,101282.66
2023-05-05T20:13:36.535Z,101282.59
2023-05-05T20:16:03.146Z,101277.94
2023-05-05T20:18:29.617Z,101275.03
2023-05-05T20:20:56.397Z,101288.69
2023-05-05T20:23:22.855Z,101275.28
2023-05-05T20:25:49.317Z,101263.69
2023-05-05T20:28:16.086Z,101252.28
2023-05-05T20:30:42.500Z,101268.13
2023-05-05T20:33:09.067Z,101248.25
2023-05-05T20:35:35.538Z,101253.75
2023-05-05T20:38:04.078Z,101265.81
2023-05-05T20:40:31.548Z,101268.44
2023-05-05T20:42:58.739Z,101241.97
2023-05-05T20:45:25.629Z,101245.75
2023-05-05T20:47:52.245Z,101228.91
2023-05-05T20:50:22.121Z,101259.44
2023-05-05T20:52:49.484Z,101256.69
2023-05-05T20:55:15.981Z,101258.25
2023-05-05T20:57:42.450Z,101260.47
2023-05-05T21:00:09.682Z,101261.63
2023-05-05T21:02:36.451Z,101259.69
2023-05-05T21:05:03.168Z,101262.09
2023-05-05T21:07:31.385Z,101252.41
2023-05-05T21:10:00.960Z,101242.69
2023-05-05T21:12:29.001Z,101253.69
2023-05-05T21:14:59.485Z,101254.34
2023-05-05T21:17:27.133Z,101256.00
2023-05-05T21:19:54.195Z,101262.56
2023-05-05T21:22:21.242Z,101258.41
2023-05-05T21:24:48.318Z,101262.41
2023-05-05T21:27:15.172Z,101262.97
2023-05-05T21:29:41.657Z,101243.63
2023-05-05T21:32:09.419Z,101260.59
2023-05-05T21:34:36.665Z,101254.00
2023-05-05T21:37:03.571Z,101257.72
2023-05-05T21:39:33.292Z,101254.91
2023-05-05T21:42:00.654Z,101252.06
2023-05-05T21:44:28.265Z,101255.09
2023-05-05T21:46:55.415Z,101259.34
2023-05-05T21:49:22.188Z,101262.69
2023-05-05T21:51:48.593Z,101264.50
2023-05-05T21:54:15.071Z,101261.56
2023-05-05T21:56:41.649Z,101258.53
2023-05-05T21:59:08.125Z,101257.94
2023-05-05T22:01:35.124Z,101251.97
2023-05-05T22:04:01.715Z,101260.47
2023-05-05T22:06:28.222Z,101252.78
2023-05-05T22:08:54.822Z,101278.00
2023-05-05T22:11:21.424Z,101273.53
2023-05-05T22:13:48.002Z,101271.34
2023-05-05T22:16:16.105Z,101263.88
2023-05-05T22:18:42.535Z,101266.63
2023-05-05T22:21:09.191Z,101267.75
2023-05-05T22:23:37.148Z,101275.47
2023-05-05T22:26:04.860Z,101292.84
2023-05-05T22:28:31.276Z,101288.22
2023-05-05T22:30:57.805Z,101284.47
2023-05-05T22:33:24.476Z,101289.53
2023-05-05T22:35:52.157Z,101291.22
2023-05-05T22:38:18.807Z,101293.00
2023-05-05T22:40:45.926Z,101293.72
2023-05-05T22:43:12.357Z,101294.34
2023-05-05T22:45:38.960Z,101293.94
2023-05-05T22:48:06.017Z,101297.59
2023-05-05T22:50:32.470Z,101274.16
2023-05-05T22:52:58.909Z,101289.81
2023-05-05T22:55:25.387Z,101271.00
2023-05-05T22:57:52.748Z,101267.09
2023-05-05T23:00:19.335Z,101292.63
2023-05-05T23:02:45.921Z,101272.06
2023-05-05T23:05:12.690Z,101285.31
2023-05-05T23:07:39.399Z,101269.59
2023-05-05T23:10:06.388Z,101267.09
2023-05-05T23:12:32.903Z,101270.00
2023-05-05T23:14:59.376Z,101264.88
2023-05-05T23:17:25.947Z,101260.50
2023-05-05T23:19:52.901Z,101266.88
2023-05-05T23:22:19.328Z,101259.78
2023-05-05T23:24:45.771Z,101253.22
2023-05-05T23:27:12.680Z,101238.78
2023-05-05T23:29:39.250Z,101253.28
2023-05-05T23:32:06.506Z,101249.41
2023-05-05T23:34:32.972Z,101243.69
2023-05-05T23:36:59.405Z,101237.50
2023-05-05T23:39:25.838Z,101236.59
2023-05-05T23:41:52.356Z,101226.44
2023-05-05T23:44:18.849Z,101223.78
2023-05-05T23:46:45.360Z,101230.81
2023-05-05T23:49:11.867Z,101241.00
2023-05-05T23:51:38.312Z,101236.69
2023-05-05T23:54:04.777Z,101243.47
2023-05-05T23:56:31.234Z,101236.94
2023-05-05T23:58:57.690Z,101233.16
